Time;durP1;ratioP1;P1;durP2;ratioP2;P2;SDS_P1;SDS_P2;PMS_P1;PMS_P2;Temp;Humidity;BMP_temperature;BMP_pressure;BME280_temperature;BME280_humidity;BME280_pressure;Samples;Min_cycle;Max_cycle;Signal;HPM_P1;HPM_P2
2023/03/19 00:02:01;;;;;;;;;6.67;6.00;;;;;13.96;66.70;100671.22;5031708;28;45230;-71
2023/03/19 00:04:26;;;;;;;;;3.67;3.67;;;;;14.18;67.25;100712.66;5036903;28;45603;-72
2023/03/19 00:06:52;;;;;;;;;6.33;6.33;;;;;14.23;67.23;100727.94;5040843;28;45180;-72
2023/03/19 00:09:19;;;;;;;;;11.00;9.75;;;;;14.18;67.48;100725.19;5037669;28;45144;-71
2023/03/19 00:11:45;;;;;;;;;3.00;3.00;;;;;14.12;67.56;100719.75;5038613;28;45221;-69
2023/03/19 00:14:11;;;;;;;;;6.00;5.33;;;;;14.15;67.16;100727.84;5033924;28;45464;-73
2023/03/19 00:16:37;;;;;;;;;3.00;3.00;;;;;14.04;67.16;100710.69;5038378;28;45246;-71
2023/03/19 00:19:03;;;;;;;;;4.67;4.67;;;;;14.03;67.60;100725.91;5027878;28;45125;-73
2023/03/19 00:21:30;;;;;;;;;10.00;6.33;;;;;14.02;67.78;100721.41;5032428;28;45255;-68
2023/03/19 00:23:59;;;;;;;;;3.00;2.00;;;;;14.10;67.28;100735.84;5036237;28;45333;-69
2023/03/19 00:26:26;;;;;;;;;2.00;2.00;;;;;14.08;66.60;100732.25;5029673;28;45753;-67
2023/03/19 00:28:51;;;;;;;;;4.00;3.33;;;;;14.08;66.97;100742.97;5031958;28;45929;-73
2023/03/19 00:31:17;;;;;;;;;11.75;9.75;;;;;14.02;66.89;100740.22;5034255;28;52005;-70
2023/03/19 00:33:42;;;;;;;;;9.00;9.00;;;;;13.87;66.95;100706.00;5034247;28;45812;-71
2023/03/19 00:36:09;;;;;;;;;4.00;3.67;;;;;14.04;67.45;100745.59;5036035;28;45109;-73
2023/03/19 00:38:35;;;;;;;;;9.25;7.75;;;;;13.99;67.28;100737.50;5029236;28;46400;-70
2023/03/19 00:41:01;;;;;;;;;4.67;3.67;;;;;14.04;66.65;100749.22;5029146;28;45279;-73
2023/03/19 00:43:27;;;;;;;;;9.75;9.00;;;;;14.07;66.70;100751.03;5019401;28;45945;-72
2023/03/19 00:45:52;;;;;;;;;11.75;10.00;;;;;14.06;66.48;100752.81;5032125;28;45169;-71
2023/03/19 00:48:18;;;;;;;;;10.00;8.00;;;;;14.01;66.99;100747.38;5036757;28;45195;-71
2023/03/19 00:50:43;;;;;;;;;16.75;15.00;;;;;13.95;66.91;100744.63;5031752;28;45375;-72
2023/03/19 00:53:09;;;;;;;;;9.67;7.33;;;;;14.04;66.63;100748.28;5029317;28;46318;-72
2023/03/19 00:55:35;;;;;;;;;5.00;4.00;;;;;13.95;66.55;100736.56;5034100;28;45016;-73
2023/03/19 00:58:01;;;;;;;;;13.50;12.50;;;;;14.07;66.98;100754.59;5031003;28;45409;-70
2023/03/19 01:00:27;;;;;;;;;18.75;15.25;;;;;14.10;66.62;100759.13;5032345;28;46118;-72
2023/03/19 01:02:52;;;;;;;;;10.50;7.50;;;;;13.97;66.67;100737.50;5039956;28;45712;-71
2023/03/19 01:05:18;;;;;;;;;6.00;4.00;;;;;14.07;66.28;100759.97;5026666;28;45100;-72
2023/03/19 01:07:43;;;;;;;;;3.00;3.00;;;;;14.00;66.33;100747.38;5020161;28;45192;-71
2023/03/19 01:10:10;;;;;;;;;12.75;12.00;;;;;14.06;66.50;100760.88;5034747;28;45449;-70
2023/03/19 01:12:35;;;;;;;;;12.00;12.00;;;;;14.08;66.48;100766.28;5036648;28;46312;-73
2023/03/19 01:15:01;;;;;;;;;8.33;6.00;;;;;14.09;66.91;100766.28;5029144;28;45039;-67
2023/03/19 01:17:27;;;;;;;;;3.00;3.00;;;;;14.09;66.53;100777.03;5035510;28;45140;-72
2023/03/19 01:19:52;;;;;;;;;4.00;2.67;;;;;14.09;65.97;100768.97;5027921;28;45211;-69
2023/03/19 01:22:17;;;;;;;;;3.67;3.00;;;;;14.05;66.37;100777.88;5031205;28;45945;-70
2023/03/19 01:24:43;;;;;;;;;7.00;5.00;;;;;14.01;66.66;100771.56;5031226;28;45348;-72
2023/03/19 01:27:08;;;;;;;;;7.67;6.00;;;;;14.00;66.58;100772.44;5035987;28;44987;-71
2023/03/19 01:29:34;;;;;;;;;4.67;4.67;;;;;13.97;66.58;100758.06;5036103;28;45119;-71
2023/03/19 01:31:59;;;;;;;;;9.00;5.67;;;;;13.93;66.69;100750.88;5036248;28;46535;-72
2023/03/19 01:34:25;;;;;;;;;5.00;4.00;;;;;13.92;66.60;100763.38;5034523;28;45254;-72
2023/03/19 01:36:51;;;;;;;;;3.00;3.00;;;;;13.98;66.05;100778.69;5032393;28;45041;-70
2023/03/19 01:39:16;;;;;;;;;9.50;9.50;;;;;13.88;66.66;100766.91;5034158;28;45227;-72
2023/03/19 01:41:42;;;;;;;;;4.00;4.00;;;;;13.95;66.89;100786.69;5032641;28;45584;-71
2023/03/19 01:44:27;;;;;;;;;6.00;4.33;;;;;13.97;66.93;100775.09;5039261;28;45212;-71
2023/03/19 01:46:53;;;;;;;;;3.67;3.33;;;;;14.01;66.19;100773.34;5034955;28;45073;-70
2023/03/19 01:49:21;;;;;;;;;7.00;5.00;;;;;13.86;66.61;100747.22;5014178;28;45236;-72
2023/03/19 01:51:47;;;;;;;;;9.75;8.75;;;;;13.98;67.13;100763.47;5026914;28;45686;-72
2023/03/19 01:54:17;;;;;;;;;6.33;4.00;;;;;14.03;67.10;100774.28;5033584;28;45140;-71
2023/03/19 01:56:44;;;;;;;;;4.00;4.00;;;;;14.02;67.83;100767.09;5036467;28;45266;-71
2023/03/19 01:59:16;;;;;;;;;8.67;5.67;;;;;14.00;68.23;100764.38;5031098;28;45121;-69
2023/03/19 02:02:09;;;;;;;;;5.33;4.00;;;;;14.08;68.32;100772.53;5028197;28;45121;-70
2023/03/19 02:04:37;;;;;;;;;5.00;4.00;;;;;14.03;68.13;100757.25;5035589;28;46084;-72
2023/03/19 02:07:04;;;;;;;;;6.00;6.00;;;;;13.94;68.03;100744.59;5030260;28;45097;-71
2023/03/19 02:09:29;;;;;;;;;5.00;5.00;;;;;14.07;67.81;100757.28;5031048;28;45119;-70
2023/03/19 02:11:56;;;;;;;;;4.00;4.00;;;;;14.07;67.65;100757.28;5029746;28;45258;-69
2023/03/19 02:14:21;;;;;;;;;4.00;4.00;;;;;13.95;67.33;100739.25;5039997;28;45006;-71
2023/03/19 02:16:47;;;;;;;;;4.33;4.33;;;;;13.96;67.59;100738.38;5033049;28;45235;-72
2023/03/19 02:19:19;;;;;;;;;3.33;3.33;;;;;13.95;67.65;100732.97;5037781;28;45266;-70
2023/03/19 02:21:45;;;;;;;;;5.33;4.00;;;;;14.03;67.52;100746.50;5036742;28;46218;-71
2023/03/19 02:24:20;;;;;;;;;4.33;4.33;;;;;13.97;67.16;100745.56;5036130;28;45210;-73
2023/03/19 02:26:46;;;;;;;;;5.33;4.00;;;;;13.90;66.65;100737.41;5036103;28;45119;-73
2023/03/19 02:29:12;;;;;;;;;3.33;3.00;;;;;13.74;66.71;100723.78;5037287;28;45327;-71
2023/03/19 02:31:37;;;;;;;;;8.00;4.00;;;;;13.89;67.20;100747.25;5033842;28;45876;-69
2023/03/19 02:34:25;;;;;;;;;4.00;4.00;;;;;13.87;67.03;100748.09;5031148;28;44992;-71
2023/03/19 02:36:56;;;;;;;;;4.00;4.00;;;;;13.87;67.21;100743.63;5042766;28;45191;-71
2023/03/19 02:39:31;;;;;;;;;4.00;4.00;;;;;12.83;66.62;100569.56;5028395;28;45277;-68
2023/03/19 02:41:59;;;;;;;;;5.33;4.00;;;;;13.80;67.11;100749.81;5038692;28;45362;-69
2023/03/19 02:44:25;;;;;;;;;7.00;5.67;;;;;13.78;67.79;100755.16;5036286;28;45049;-69
2023/03/19 02:46:50;;;;;;;;;5.00;5.00;;;;;13.80;67.04;100765.91;5034776;28;44876;-72
2023/03/19 02:49:16;;;;;;;;;5.33;4.67;;;;;13.81;67.51;100771.31;5037365;28;45113;-72
2023/03/19 02:51:41;;;;;;;;;8.33;5.00;;;;;13.85;67.68;100760.59;5036892;28;45649;-73
2023/03/19 02:54:07;;;;;;;;;4.67;4.33;;;;;13.81;67.42;100759.69;5036102;28;45710;-70
2023/03/19 02:56:32;;;;;;;;;9.25;9.25;;;;;13.81;67.72;100748.94;5034652;28;45223;-71
2023/03/19 02:58:58;;;;;;;;;4.00;3.33;;;;;13.90;66.93;100775.00;5040402;28;45286;-71
2023/03/19 03:01:23;;;;;;;;;6.00;4.67;;;;;13.88;67.07;100764.22;5035649;28;45412;-69
2023/03/19 03:03:49;;;;;;;;;0.00;0.00;;;;;13.86;66.99;100767.75;5039325;28;45253;-68
2023/03/19 03:06:16;;;;;;;;;4.67;4.67;;;;;13.85;67.03;100766.88;5035047;28;44990;-71
2023/03/19 03:08:42;;;;;;;;;6.33;4.67;;;;;13.58;66.85;100725.34;5039212;28;45021;-71
2023/03/19 03:11:08;;;;;;;;;3.67;2.67;;;;;13.64;66.56;100729.88;5033369;28;45561;-71
2023/03/19 03:13:33;;;;;;;;;4.33;3.33;;;;;13.82;66.73;100758.78;5031683;28;44989;-70
2023/03/19 03:15:59;;;;;;;;;5.00;4.00;;;;;13.88;66.68;100783.03;5040145;28;45036;-69
2023/03/19 03:18:24;;;;;;;;;5.33;4.00;;;;;13.82;66.48;100775.78;5033108;28;45181;-69
2023/03/19 03:20:50;;;;;;;;;6.00;3.33;;;;;13.83;66.96;100774.00;5035432;28;45836;-71
2023/03/19 03:23:15;;;;;;;;;5.33;3.33;;;;;13.80;66.82;100774.88;5030296;28;45259;-70
2023/03/19 03:25:41;;;;;;;;;6.33;4.67;;;;;13.75;66.72;100768.53;5029843;28;45084;-70
2023/03/19 03:28:06;;;;;;;;;3.00;3.00;;;;;13.76;66.49;100764.06;5032752;28;45336;-71
2023/03/19 03:30:32;;;;;;;;;3.00;3.00;;;;;13.71;66.96;100755.97;5028312;28;45725;-70
2023/03/19 03:32:57;;;;;;;;;2.33;2.00;;;;;13.78;66.75;100776.63;5030228;28;45005;-71
2023/03/19 03:35:23;;;;;;;;;6.00;4.00;;;;;13.66;66.65;100759.44;5036381;28;45222;-67
2023/03/19 03:37:49;;;;;;;;;4.33;4.00;;;;;13.60;66.28;100760.28;5041372;28;45153;-72
2023/03/19 03:40:16;;;;;;;;;4.00;4.00;;;;;13.75;66.48;100781.97;5036228;28;45590;-67
2023/03/19 03:42:41;;;;;;;;;4.67;4.00;;;;;13.75;66.70;100781.97;5036965;28;45029;-69
2023/03/19 03:45:08;;;;;;;;;4.00;4.00;;;;;13.77;66.36;100782.88;5034454;28;45928;-70
2023/03/19 03:47:34;;;;;;;;;6.00;4.33;;;;;13.59;66.57;100753.97;5036808;28;45825;-72
2023/03/19 03:50:00;;;;;;;;;5.67;5.67;;;;;13.64;66.08;100773.78;5032797;28;47210;-70
2023/03/19 03:52:30;;;;;;;;;4.67;4.33;;;;;13.57;66.39;100763.81;5036872;28;45093;-70
2023/03/19 03:54:59;;;;;;;;;6.00;5.00;;;;;13.73;66.25;100790.88;5034477;28;45141;-69
2023/03/19 03:57:25;;;;;;;;;5.00;5.00;;;;;13.70;66.83;100786.38;5041150;28;45100;-72
2023/03/19 03:59:51;;;;;;;;;6.33;6.00;;;;;13.59;66.81;100777.25;5035696;28;45650;-72
2023/03/19 04:02:16;;;;;;;;;5.00;5.00;;;;;13.49;66.38;100767.25;5034470;28;45367;-70
2023/03/19 04:04:42;;;;;;;;;4.00;4.00;;;;;13.64;66.62;100797.94;5043293;28;47387;-69
2023/03/19 04:07:07;;;;;;;;;7.00;5.50;;;;;13.62;66.85;100788.94;5034866;28;45216;-72
2023/03/19 04:09:33;;;;;;;;;4.00;4.00;;;;;13.66;66.39;100795.28;5035114;28;45584;-69
2023/03/19 04:11:59;;;;;;;;;7.00;5.67;;;;;13.66;66.89;100800.63;5033627;28;45214;-71
2023/03/19 04:14:25;;;;;;;;;8.33;6.00;;;;;13.55;66.55;100784.34;5039298;28;45434;-70
2023/03/19 04:16:50;;;;;;;;;5.33;5.00;;;;;13.63;66.65;100798.78;5030695;28;45124;-71
2023/03/19 04:19:16;;;;;;;;;7.00;5.67;;;;;13.61;66.44;100802.31;5036458;28;45549;-72
2023/03/19 04:21:41;;;;;;;;;4.00;4.00;;;;;13.51;67.19;100792.34;5037089;28;45198;-69
2023/03/19 04:24:08;;;;;;;;;7.00;6.00;;;;;13.62;67.09;100804.16;5038844;28;45789;-71
2023/03/19 04:26:34;;;;;;;;;5.33;5.00;;;;;13.59;67.51;100801.41;5040249;28;44983;-72
2023/03/19 04:28:59;;;;;;;;;4.33;4.33;;;;;13.20;68.71;100748.88;5019150;28;45148;-71
2023/03/19 04:31:25;;;;;;;;;6.33;4.00;;;;;13.45;68.90;100802.09;5040797;28;45028;-69
2023/03/19 04:33:50;;;;;;;;;6.67;6.67;;;;;13.38;69.62;100799.28;5039383;28;45047;-72
2023/03/19 04:36:16;;;;;;;;;9.67;5.00;;;;;13.34;69.85;100801.03;5040642;28;45172;-72
2023/03/19 04:38:42;;;;;;;;;8.00;4.67;;;;;13.38;70.69;100810.94;5039207;28;46163;-72
2023/03/19 04:41:07;;;;;;;;;8.00;5.67;;;;;13.37;69.87;100814.50;5033684;28;45097;-69
2023/03/19 04:43:33;;;;;;;;;6.00;4.00;;;;;13.33;70.44;100819.78;5037356;28;45077;-71
2023/03/19 04:45:59;;;;;;;;;5.33;5.33;;;;;13.29;71.99;100805.38;5034760;28;45208;-70
2023/03/19 04:48:25;;;;;;;;;8.00;7.00;;;;;13.24;71.06;100801.72;5034378;28;45271;-67
2023/03/19 04:50:52;;;;;;;;;3.00;3.00;;;;;13.11;71.20;100775.59;5030228;28;45085;-70
2023/03/19 04:53:21;;;;;;;;;5.00;5.00;;;;;12.94;72.00;100751.19;5041314;28;45197;-72
2023/03/19 04:55:46;;;;;;;;;6.67;6.67;;;;;13.21;71.83;100793.63;5030205;28;46086;-72
2023/03/19 04:58:12;;;;;;;;;8.00;6.00;;;;;13.23;71.59;100808.88;5032325;28;45815;-70
2023/03/19 05:00:37;;;;;;;;;7.50;6.25;;;;;13.01;71.76;100771.84;5033286;28;45092;-71
2023/03/19 05:03:03;;;;;;;;;7.67;5.33;;;;;13.11;71.52;100795.25;5037232;28;45212;-72
2023/03/19 05:05:28;;;;;;;;;7.00;7.00;;;;;13.25;71.07;100827.69;5030549;28;45045;-71
2023/03/19 05:07:56;;;;;;;;;7.00;7.00;;;;;13.21;71.78;100815.97;5013604;28;46886;-72
2023/03/19 05:10:21;;;;;;;;;9.00;9.00;;;;;13.21;70.72;100815.09;5033236;28;45200;-71
2023/03/19 05:12:47;;;;;;;;;7.67;7.33;;;;;13.28;71.85;100820.59;5032728;28;45152;-72
2023/03/19 05:15:14;;;;;;;;;7.67;7.00;;;;;13.29;71.61;100818.81;5036936;28;45071;-69
2023/03/19 05:17:40;;;;;;;;;7.25;7.00;;;;;13.30;70.72;100820.63;5038814;28;45882;-71
2023/03/19 05:20:06;;;;;;;;;6.00;6.00;;;;;13.32;70.90;100831.38;5035165;28;45329;-71
2023/03/19 05:22:33;;;;;;;;;11.75;9.00;;;;;13.30;70.32;100836.72;5039547;28;45200;-72
2023/03/19 05:24:58;;;;;;;;;10.50;9.25;;;;;13.19;70.92;100819.53;5029064;28;44999;-71
2023/03/19 05:27:23;;;;;;;;;9.75;8.75;;;;;13.26;70.66;100838.47;5038874;28;45076;-70
2023/03/19 05:29:49;;;;;;;;;10.25;8.50;;;;;13.18;71.31;100826.69;5032556;28;44881;-71
2023/03/19 05:32:14;;;;;;;;;13.25;10.25;;;;;13.19;70.95;100820.44;5037844;28;45126;-74
2023/03/19 05:34:40;;;;;;;;;10.00;10.00;;;;;13.26;70.75;100848.25;5039837;28;45102;-72
2023/03/19 05:37:05;;;;;;;;;14.50;11.00;;;;;13.21;70.50;100839.25;5038700;28;45590;-72
2023/03/19 05:39:30;;;;;;;;;11.00;11.00;;;;;13.26;71.31;100850.94;5033985;28;45057;-71
2023/03/19 05:41:56;;;;;;;;;13.00;9.75;;;;;13.24;70.69;100844.66;5041675;28;45244;-70
2023/03/19 05:44:21;;;;;;;;;14.75;9.25;;;;;13.23;71.59;100857.19;5037341;28;45312;-70
2023/03/19 05:46:47;;;;;;;;;11.00;11.00;;;;;13.19;71.19;100849.06;5043916;28;46097;-69
2023/03/19 05:49:13;;;;;;;;;12.50;11.25;;;;;13.19;71.30;100851.72;5035577;28;45176;-69
2023/03/19 05:51:38;;;;;;;;;10.00;9.75;;;;;13.24;70.86;100858.06;5037473;28;45101;-70
2023/03/19 05:54:03;;;;;;;;;11.00;10.25;;;;;13.24;70.54;100863.44;5035827;28;45109;-71
2023/03/19 05:56:29;;;;;;;;;11.25;10.50;;;;;12.91;71.36;100809.22;5013674;28;48377;-72
2023/03/19 05:58:55;;;;;;;;;20.25;14.25;;;;;13.23;71.31;100867.91;5035197;28;45211;-69
2023/03/19 06:01:21;;;;;;;;;13.50;9.00;;;;;13.25;71.06;100868.84;5025601;28;44990;-70
2023/03/19 06:03:46;;;;;;;;;11.75;11.00;;;;;13.24;70.70;100858.97;5037728;28;45171;-72
2023/03/19 06:06:11;;;;;;;;;13.25;11.00;;;;;13.15;70.57;100853.47;5013014;28;47362;-71
2023/03/19 06:08:37;;;;;;;;;11.75;11.00;;;;;13.25;70.83;100884.03;5039198;28;45197;-67
2023/03/19 06:11:03;;;;;;;;;13.00;10.00;;;;;13.15;70.17;100871.31;5037848;28;45034;-71
2023/03/19 06:13:28;;;;;;;;;14.25;9.50;;;;;13.18;70.36;100880.34;5031054;28;45212;-71
2023/03/19 06:15:54;;;;;;;;;13.25;10.00;;;;;13.10;70.15;100860.53;5030989;28;45460;-71
2023/03/19 06:18:19;;;;;;;;;10.25;10.25;;;;;13.19;70.06;100875.88;5031899;28;53456;-70
2023/03/19 06:20:46;;;;;;;;;9.00;7.25;;;;;13.20;70.10;100877.66;5038688;28;45164;-70
2023/03/19 06:23:11;;;;;;;;;15.25;11.50;;;;;13.22;69.87;100876.81;5032241;28;45228;-71
2023/03/19 06:25:36;;;;;;;;;14.50;9.75;;;;;13.25;69.73;100871.53;5031835;28;46047;-72
2023/03/19 06:28:02;;;;;;;;;10.25;9.75;;;;;12.99;69.64;100824.56;5014741;28;45112;-71
2023/03/19 06:30:28;;;;;;;;;11.75;10.00;;;;;13.33;69.59;100890.47;5032641;28;45303;-68
2023/03/19 06:32:53;;;;;;;;;10.50;9.75;;;;;13.31;69.68;100891.28;5032484;28;45092;-71
2023/03/19 06:35:19;;;;;;;;;9.00;8.00;;;;;13.30;68.87;100903.81;5031331;28;45431;-71
2023/03/19 06:37:44;;;;;;;;;11.00;9.25;;;;;13.20;69.61;100899.13;5038054;28;46009;-68
2023/03/19 06:40:10;;;;;;;;;10.00;9.00;;;;;13.19;69.65;100910.75;5022332;28;44950;-70
2023/03/19 06:42:36;;;;;;;;;8.75;7.50;;;;;13.14;69.96;100915.13;5032313;28;44959;-69
2023/03/19 06:45:01;;;;;;;;;9.25;9.25;;;;;13.12;70.17;100911.53;5042765;28;45542;-70
2023/03/19 06:47:27;;;;;;;;;9.50;9.50;;;;;13.13;70.21;100919.56;5032767;28;45003;-69
2023/03/19 06:49:52;;;;;;;;;11.00;10.00;;;;;13.15;69.40;100916.91;5039282;28;45136;-69
2023/03/19 06:52:18;;;;;;;;;9.50;8.50;;;;;13.14;70.80;100917.81;5033255;28;44903;-66
2023/03/19 06:54:43;;;;;;;;;12.75;11.00;;;;;13.07;70.45;100915.00;5032697;28;45550;-70
2023/03/19 06:57:08;;;;;;;;;13.25;10.50;;;;;13.10;70.16;100903.44;5018270;28;45105;-72
2023/03/19 06:59:34;;;;;;;;;13.00;10.75;;;;;13.07;69.54;100906.06;5037164;28;45280;-71
2023/03/19 07:02:00;;;;;;;;;13.50;10.75;;;;;13.03;69.89;100914.91;5037688;28;45189;-71
2023/03/19 07:04:26;;;;;;;;;9.75;9.75;;;;;13.07;70.37;100925.75;5029084;28;45718;-73
2023/03/19 07:06:51;;;;;;;;;12.00;11.00;;;;;13.08;69.48;100915.91;5036842;28;45021;-69
2023/03/19 07:09:17;;;;;;;;;8.75;7.25;;;;;13.08;69.60;100903.41;5034992;28;46240;-68
2023/03/19 07:11:42;;;;;;;;;9.75;9.50;;;;;13.12;69.21;100898.13;5041217;28;45708;-73
2023/03/19 07:14:07;;;;;;;;;12.00;9.50;;;;;13.23;69.09;100916.22;5040979;28;45083;-70
2023/03/19 07:16:33;;;;;;;;;11.75;11.75;;;;;13.21;68.90;100906.31;5035682;28;45133;-72
2023/03/19 07:18:58;;;;;;;;;8.67;7.33;;;;;13.27;68.29;100915.38;5039668;28;45447;-72
2023/03/19 07:21:24;;;;;;;;;10.00;8.00;;;;;13.33;68.64;100932.50;5031342;28;46231;-71
2023/03/19 07:23:49;;;;;;;;;7.67;7.33;;;;;13.32;67.34;100930.66;5032308;28;45864;-70
2023/03/19 07:26:15;;;;;;;;;9.25;8.00;;;;;13.35;67.34;100937.03;5035285;28;45101;-69
2023/03/19 07:28:41;;;;;;;;;6.00;5.00;;;;;13.20;66.08;100916.16;5038483;28;45621;-70
2023/03/19 07:31:06;;;;;;;;;10.00;7.00;;;;;13.34;66.68;100935.19;5035634;28;45319;-68
2023/03/19 07:33:32;;;;;;;;;5.33;5.33;;;;;13.34;66.09;100937.88;5039837;28;45162;-71
2023/03/19 07:35:57;;;;;;;;;7.00;6.33;;;;;13.33;66.40;100929.81;5037081;28;46416;-69
2023/03/19 07:38:23;;;;;;;;;10.33;8.00;;;;;13.09;67.29;100881.06;5032531;28;45105;-71
2023/03/19 07:40:49;;;;;;;;;8.33;6.67;;;;;13.45;66.88;100925.56;5041842;28;44996;-68
2023/03/19 07:43:15;;;;;;;;;8.67;7.67;;;;;13.50;66.88;100927.44;5032518;28;45631;-70
2023/03/19 07:45:40;;;;;;;;;11.33;11.33;;;;;13.39;66.56;100911.13;5029677;28;45224;-67
2023/03/19 07:48:06;;;;;;;;;6.67;6.67;;;;;13.32;66.20;100923.53;5016408;28;45307;-71
2023/03/19 07:50:31;;;;;;;;;7.00;5.33;;;;;13.28;65.83;100921.63;5030433;28;45210;-73
2023/03/19 07:52:57;;;;;;;;;8.00;8.00;;;;;13.31;66.20;100931.53;5039271;28;45685;-70
2023/03/19 07:55:23;;;;;;;;;8.00;8.00;;;;;13.36;66.48;100941.50;5035360;28;44961;-71
2023/03/19 07:57:48;;;;;;;;;6.33;6.00;;;;;13.37;66.49;100931.69;5035812;28;45211;-70
2023/03/19 08:00:14;;;;;;;;;7.33;5.67;;;;;13.34;66.60;100939.69;5013731;28;45161;-66
2023/03/19 08:02:41;;;;;;;;;9.00;5.33;;;;;13.30;66.47;100930.63;5035035;28;45602;-68
2023/03/19 08:05:07;;;;;;;;;8.50;6.75;;;;;13.19;65.24;100916.13;5036334;28;45126;-68
2023/03/19 08:07:32;;;;;;;;;19.50;18.00;;;;;12.80;66.40;100851.06;5033923;28;44967;-66
2023/03/19 08:09:58;;;;;;;;;7.00;7.00;;;;;13.25;65.49;100935.03;5036579;28;45923;-68
2023/03/19 08:12:24;;;;;;;;;9.50;7.75;;;;;13.27;65.69;100939.53;5036361;28;45188;-69
2023/03/19 08:14:49;;;;;;;;;5.33;5.33;;;;;13.32;65.88;100939.66;5037349;28;44955;-69
2023/03/19 08:17:15;;;;;;;;;7.00;6.67;;;;;13.34;65.03;100940.56;5037926;28;45032;-69
2023/03/19 08:19:41;;;;;;;;;6.00;5.00;;;;;13.24;64.71;100934.09;5040110;28;45026;-70
2023/03/19 08:22:06;;;;;;;;;10.00;6.33;;;;;13.31;64.87;100940.47;5035969;28;46161;-69
2023/03/19 08:24:32;;;;;;;;;6.67;5.33;;;;;13.35;64.51;100947.75;5034696;28;45220;-71
2023/03/19 08:26:57;;;;;;;;;9.33;6.67;;;;;13.37;64.20;100946.00;5030688;28;45428;-70
2023/03/19 08:29:25;;;;;;;;;6.67;4.00;;;;;13.48;64.75;100945.28;5033484;28;45247;-72
2023/03/19 08:31:50;;;;;;;;;9.00;6.00;;;;;13.56;64.73;100940.94;5030921;28;45888;-72
2023/03/19 08:34:16;;;;;;;;;7.33;6.00;;;;;13.61;63.58;100945.53;5030353;28;45048;-68
2023/03/19 08:36:41;;;;;;;;;7.00;5.00;;;;;13.50;64.00;100931.03;5034916;28;45413;-71
2023/03/19 08:39:07;;;;;;;;;5.00;5.00;;;;;13.67;63.66;100962.63;5027387;28;44979;-70
2023/03/19 08:41:32;;;;;;;;;8.33;6.33;;;;;13.52;63.04;100940.00;5012667;28;47150;-71
2023/03/19 08:43:57;;;;;;;;;6.67;5.00;;;;;13.61;64.31;100974.13;5000923;28;45551;-72
2023/03/19 08:46:23;;;;;;;;;7.33;6.67;;;;;13.68;64.20;100986.81;5025756;28;45558;-72
2023/03/19 08:48:48;;;;;;;;;8.00;6.00;;;;;13.76;64.20;100982.47;5002535;28;45666;-71
2023/03/19 08:51:13;;;;;;;;;4.67;4.67;;;;;13.80;63.34;100991.50;5022777;28;46538;-71
2023/03/19 08:53:39;;;;;;;;;7.00;7.00;;;;;13.70;63.34;100971.63;5024538;28;45605;-71
2023/03/19 08:56:06;;;;;;;;;8.00;8.00;;;;;13.78;63.55;100991.47;5031326;28;45463;-71
2023/03/19 08:58:32;;;;;;;;;8.00;6.33;;;;;13.73;63.82;101006.59;5017480;28;45881;-69
2023/03/19 09:01:09;;;;;;;;;6.33;6.33;;;;;13.69;64.07;101014.56;5015176;28;46328;-73
2023/03/19 09:03:35;;;;;;;;;8.67;5.67;;;;;13.62;63.94;101014.44;5023690;28;45026;-69
2023/03/19 09:06:04;;;;;;;;;7.67;5.33;;;;;13.56;64.46;101002.69;5001589;28;45736;-72
2023/03/19 09:08:30;;;;;;;;;6.67;6.00;;;;;13.77;63.69;101023.66;5024298;28;45592;-70
2023/03/19 09:10:56;;;;;;;;;8.00;5.67;;;;;13.89;62.94;101026.56;5014890;28;45542;-71
2023/03/19 09:13:22;;;;;;;;;7.67;5.00;;;;;14.00;62.12;101021.38;5030592;28;45235;-70
2023/03/19 09:15:48;;;;;;;;;6.67;5.00;;;;;14.05;62.23;101024.13;5020519;28;45281;-69
2023/03/19 09:18:14;;;;;;;;;8.00;5.67;;;;;14.00;61.33;101014.19;5032712;28;45376;-70
2023/03/19 09:20:40;;;;;;;;;6.00;5.00;;;;;14.11;61.44;101035.88;5018166;28;46317;-67
2023/03/19 09:23:05;;;;;;;;;3.00;3.00;;;;;14.13;61.38;101033.22;5022254;28;45289;-71
2023/03/19 09:25:30;;;;;;;;;4.33;4.00;;;;;14.22;61.82;101040.53;5028948;28;45602;-70
2023/03/19 09:27:56;;;;;;;;;6.00;5.67;;;;;14.28;60.91;101037.94;5035421;28;45215;-71
2023/03/19 09:30:21;;;;;;;;;4.00;4.00;;;;;14.01;61.09;100983.78;5024611;28;45395;-72
2023/03/19 09:32:46;;;;;;;;;7.00;7.00;;;;;14.27;60.58;101018.25;5005306;28;45454;-70
2023/03/19 09:35:12;;;;;;;;;4.00;3.00;;;;;14.27;60.65;101039.75;5026368;28;45327;-74
2023/03/19 09:37:37;;;;;;;;;6.67;6.00;;;;;14.12;61.06;101048.44;5033782;28;45279;-70
2023/03/19 09:40:04;;;;;;;;;4.33;4.33;;;;;13.85;61.21;101031.84;5026032;28;45783;-69
2023/03/19 09:42:49;;;;;;;;;6.67;6.00;;;;;13.82;61.82;101056.88;5019667;28;45504;-71
2023/03/19 09:45:17;;;;;;;;;6.67;6.33;;;;;13.72;62.66;101060.25;5019719;28;45678;-73
2023/03/19 09:47:48;;;;;;;;;5.00;5.00;;;;;13.59;62.92;101062.69;5024323;28;45533;-72
2023/03/19 09:50:17;;;;;;;;;9.00;7.33;;;;;13.63;62.63;101064.59;5025226;28;45592;-71
2023/03/19 09:52:53;;;;;;;;;4.33;4.33;;;;;13.62;63.16;101043.97;5024331;28;45482;-70
2023/03/19 09:55:31;;;;;;;;;7.67;5.67;;;;;13.70;63.01;101057.56;5019765;28;45520;-72
2023/03/19 09:57:57;;;;;;;;;7.67;6.67;;;;;13.76;63.34;101048.69;5028139;28;45230;-72
2023/03/19 10:00:31;;;;;;;;;6.00;5.33;;;;;13.91;61.93;101057.03;5018978;28;45326;-71
2023/03/19 10:02:56;;;;;;;;;4.67;3.00;;;;;14.00;62.00;101067.94;5013233;28;45422;-69
2023/03/19 10:05:50;;;;;;;;;8.00;5.67;;;;;14.11;62.05;101065.44;5014067;28;45629;-72
2023/03/19 10:08:52;;;;;;;;;5.33;4.00;;;;;14.23;61.91;101063.84;5021733;28;45247;-69
2023/03/19 10:11:51;;;;;;;;;6.33;5.67;;;;;14.25;62.33;101065.66;5006634;28;46507;-71
2023/03/19 10:14:28;;;;;;;;;8.00;8.00;;;;;14.23;64.03;101070.09;5009176;28;45336;-69
2023/03/19 10:16:58;;;;;;;;;7.00;7.00;;;;;14.13;65.17;101055.63;5023294;28;45208;-69
2023/03/19 10:19:38;;;;;;;;;4.33;4.33;;;;;14.21;65.71;101066.50;5013175;28;45586;-68
2023/03/19 10:22:11;;;;;;;;;12.00;10.50;;;;;14.19;65.81;101087.06;5019586;28;45331;-68
2023/03/19 10:24:42;;;;;;;;;7.00;6.00;;;;;14.15;66.64;101087.88;5026805;28;45345;-71
2023/03/19 10:27:20;;;;;;;;;6.67;5.67;;;;;14.18;66.88;101087.94;5016483;28;45456;-71
2023/03/19 10:29:45;;;;;;;;;7.00;7.00;;;;;14.18;66.18;101088.84;5019508;28;45451;-69
2023/03/19 10:32:37;;;;;;;;;5.00;5.00;;;;;14.09;65.96;101083.31;5012050;28;45575;-72
2023/03/19 10:35:18;;;;;;;;;8.00;6.00;;;;;14.12;65.84;101102.19;5014724;28;45457;-73
2023/03/19 10:37:43;;;;;;;;;10.00;7.33;;;;;13.97;65.97;101077.72;5016078;28;45550;-71
2023/03/19 10:40:43;;;;;;;;;10.67;8.00;;;;;14.13;65.38;101103.09;5016609;28;45533;-72
2023/03/19 10:43:19;;;;;;;;;7.00;7.00;;;;;14.12;65.55;101087.81;5013507;28;45485;-72
2023/03/19 10:45:45;;;;;;;;;5.67;4.67;;;;;14.10;65.02;101084.22;5017944;28;45450;-69
2023/03/19 10:48:16;;;;;;;;;6.00;6.00;;;;;14.28;65.24;101100.66;5014482;28;45348;-70
2023/03/19 10:50:52;;;;;;;;;7.00;6.33;;;;;14.35;65.06;101107.97;5022119;28;45581;-68
2023/03/19 10:53:17;;;;;;;;;11.67;10.00;;;;;14.42;65.08;101103.59;5023384;28;46363;-70
2023/03/19 10:56:06;;;;;;;;;5.67;5.33;;;;;14.37;64.26;101106.19;5015540;28;45440;-70
2023/03/19 10:58:34;;;;;;;;;7.33;6.33;;;;;14.32;64.42;101101.59;5021941;28;45534;-68
2023/03/19 11:01:07;;;;;;;;;14.00;12.67;;;;;14.13;63.75;101111.16;4995706;28;45608;-69
2023/03/19 11:03:39;;;;;;;;;9.00;7.67;;;;;13.98;64.51;101115.34;5022107;28;45620;-70
2023/03/19 11:06:13;;;;;;;;;5.33;3.33;;;;;13.77;62.56;101134.66;5012336;28;45521;-69
2023/03/19 11:08:38;;;;;;;;;2.67;2.67;;;;;13.58;62.02;101133.41;5016598;28;45487;-70
2023/03/19 11:11:04;;;;;;;;;4.33;3.00;;;;;13.50;61.25;101135.03;5023032;28;45467;-69
2023/03/19 11:13:34;;;;;;;;;2.67;2.00;;;;;13.48;60.75;101136.78;5015479;28;45571;-69
2023/03/19 11:16:00;;;;;;;;;4.33;2.67;;;;;13.43;60.45;101125.94;5002844;28;45442;-70
2023/03/19 11:18:38;;;;;;;;;4.67;4.33;;;;;13.53;61.09;101136.84;5010050;28;45637;-70
2023/03/19 11:21:21;;;;;;;;;9.67;6.67;;;;;13.64;60.75;101143.34;5015005;28;45524;-69
2023/03/19 11:23:51;;;;;;;;;6.00;3.67;;;;;13.67;60.28;101137.16;5017413;28;45809;-70